Time;durP1;ratioP1;P1;durP2;ratioP2;P2;SDS_P1;SDS_P2;PMS_P1;PMS_P2;Temp;Humidity;BMP_temperature;BMP_pressure;BME280_temperature;BME280_humidity;BME280_pressure;Samples;Min_cycle;Max_cycle;Signal;HPM_P1;HPM_P2
2022/06/03 00:00:19;;;;;;;;;;;13.50;73.30;;;;;;5003179;28;19961;-71
2022/06/03 00:03:11;;;;;;;;;;;13.40;74.70;;;;;;5009280;28;19943;-72
2022/06/03 00:06:01;;;;;;;;;;;13.40;75.70;;;;;;5010116;28;19979;-71
2022/06/03 00:08:34;;;;;;;;;;;13.40;76.60;;;;;;5010595;28;20277;-72
2022/06/03 00:11:11;;;;;;;;;;;13.30;77.30;;;;;;5013326;28;19980;-71
2022/06/03 00:13:49;;;;;;;;;;;13.30;78.10;;;;;;5009243;28;20016;-72
2022/06/03 00:16:23;;;;;;;;;;;13.30;78.40;;;;;;5011131;28;19972;-71
2022/06/03 00:19:00;;;;;;;;;;;13.20;79.50;;;;;;5006232;28;19925;-72
2022/06/03 00:21:39;;;;;;;;;;;13.20;80.40;;;;;;5002710;28;20018;-71
2022/06/03 00:24:10;;;;;;;;;;;13.20;81.20;;;;;;5003468;28;19934;-71
2022/06/03 00:26:45;;;;;;;;;;;13.10;81.70;;;;;;5011436;28;20012;-72
2022/06/03 00:29:30;;;;;;;;;;;13.10;82.20;;;;;;5010111;28;19925;-72
2022/06/03 00:32:05;;;;;;;;;;;13.20;83.00;;;;;;5010551;28;20283;-73
2022/06/03 00:34:40;;;;;;;;;;;13.10;83.80;;;;;;5010686;28;19925;-73
2022/06/03 00:37:13;;;;;;;;;;;13.10;84.50;;;;;;5007776;28;19926;-73
2022/06/03 00:39:44;;;;;;;;;;;13.00;85.30;;;;;;5010071;28;19948;-72
2022/06/03 00:42:24;;;;;;;;;;;13.00;86.40;;;;;;5009159;28;20043;-73
2022/06/03 00:45:09;;;;;;;;;;;12.90;87.30;;;;;;5005103;28;19980;-73
2022/06/03 00:47:49;;;;;;;;;;;12.90;87.70;;;;;;5004910;28;19969;-72
2022/06/03 00:50:28;;;;;;;;;;;12.90;89.00;;;;;;5001500;28;20016;-72
2022/06/03 00:53:11;;;;;;;;;;;12.90;89.40;;;;;;4998116;28;19973;-72
2022/06/03 00:55:49;;;;;;;;;;;12.90;89.40;;;;;;5012597;28;20024;-72
2022/06/03 00:58:23;;;;;;;;;;;12.80;90.20;;;;;;5011218;28;19948;-72
2022/06/03 01:00:57;;;;;;;;;;;12.80;90.50;;;;;;5011325;28;19965;-72
2022/06/03 01:03:31;;;;;;;;;;;12.80;90.80;;;;;;5009814;28;20024;-72
2022/06/03 01:06:15;;;;;;;;;;;12.70;91.20;;;;;;5009074;28;20016;-71
2022/06/03 01:08:47;;;;;;;;;;;12.70;91.50;;;;;;5008494;28;20020;-72
2022/06/03 01:11:23;;;;;;;;;;;12.60;91.90;;;;;;5015117;28;20096;-72
2022/06/03 01:14:02;;;;;;;;;;;12.60;92.00;;;;;;5001788;28;20008;-71
2022/06/03 01:16:45;;;;;;;;;;;12.60;92.20;;;;;;5008586;28;19931;-72
2022/06/03 01:19:16;;;;;;;;;;;12.60;92.40;;;;;;5006882;28;19961;-71
2022/06/03 01:21:47;;;;;;;;;;;12.60;92.70;;;;;;5010162;28;19936;-71
2022/06/03 01:24:21;;;;;;;;;;;12.60;92.90;;;;;;5008719;28;19925;-72
2022/06/03 01:27:07;;;;;;;;;;;12.50;93.20;;;;;;5008232;28;20451;-71
2022/06/03 01:29:45;;;;;;;;;;;12.40;93.60;;;;;;5010378;28;19926;-72
2022/06/03 01:32:30;;;;;;;;;;;12.40;93.90;;;;;;5010235;28;19933;-72
2022/06/03 01:35:15;;;;;;;;;;;12.40;94.00;;;;;;5012416;28;19929;-72
2022/06/03 01:37:47;;;;;;;;;;;12.40;94.40;;;;;;5001667;28;19933;-71
2022/06/03 01:40:32;;;;;;;;;;;12.40;94.70;;;;;;5009715;28;19957;-71
2022/06/03 01:43:17;;;;;;;;;;;12.30;94.70;;;;;;5000918;28;20444;-72
2022/06/03 01:46:04;;;;;;;;;;;12.30;95.10;;;;;;5008186;28;20020;-72
2022/06/03 01:48:55;;;;;;;;;;;12.20;95.40;;;;;;5008758;28;19933;-72
2022/06/03 01:51:36;;;;;;;;;;;12.20;95.70;;;;;;4994047;28;19972;-72
2022/06/03 01:54:21;;;;;;;;;;;12.20;96.00;;;;;;5010915;28;20381;-71
2022/06/03 01:57:05;;;;;;;;;;;12.20;96.30;;;;;;4980482;28;20098;-71
2022/06/03 02:00:02;;;;;;;;;;;12.10;96.50;;;;;;5007331;28;20014;-72
2022/06/03 02:02:53;;;;;;;;;;;12.10;97.10;;;;;;4966061;28;19933;-72
2022/06/03 02:05:27;;;;;;;;;;;12.00;97.50;;;;;;5005595;28;19973;-71
2022/06/03 02:08:09;;;;;;;;;;;12.00;97.80;;;;;;5007205;28;20012;-72
2022/06/03 02:11:06;;;;;;;;;;;12.00;98.10;;;;;;5009711;28;19929;-72
2022/06/03 02:13:50;;;;;;;;;;;11.90;98.40;;;;;;4925526;29;20006;-74
2022/06/03 02:16:30;;;;;;;;;;;11.80;98.60;;;;;;4999286;28;20017;-72
2022/06/03 02:19:15;;;;;;;;;;;11.90;98.60;;;;;;5003551;28;20363;-72
2022/06/03 02:21:52;;;;;;;;;;;11.90;98.90;;;;;;5005333;28;19979;-72
2022/06/03 02:24:37;;;;;;;;;;;11.90;98.80;;;;;;5003151;28;20007;-72
2022/06/03 02:27:23;;;;;;;;;;;11.90;99.00;;;;;;5010073;28;19983;-72
2022/06/03 02:33:03;;;;;;;;;;;11.90;99.20;;;;;;5000340;28;20000;-72
2022/06/03 02:35:41;;;;;;;;;;;11.80;99.40;;;;;;5010385;28;20351;-71
2022/06/03 02:38:22;;;;;;;;;;;11.90;99.40;;;;;;5010520;28;20288;-71
2022/06/03 02:41:03;;;;;;;;;;;11.90;99.60;;;;;;5010839;28;19957;-71
2022/06/03 02:43:45;;;;;;;;;;;11.90;99.60;;;;;;4975977;28;19925;-71
2022/06/03 02:46:21;;;;;;;;;;;12.00;99.20;;;;;;5006305;28;20035;-71
2022/06/03 02:48:57;;;;;;;;;;;12.00;99.00;;;;;;5006332;28;20021;-71
2022/06/03 02:51:37;;;;;;;;;;;11.90;99.20;;;;;;5008847;28;20036;-71
2022/06/03 02:54:18;;;;;;;;;;;11.90;99.30;;;;;;4999918;28;19926;-71
2022/06/03 02:56:58;;;;;;;;;;;11.90;99.30;;;;;;4953937;28;20021;-71
2022/06/03 02:59:44;;;;;;;;;;;11.80;99.50;;;;;;5005062;28;20462;-71
2022/06/03 03:02:29;;;;;;;;;;;11.80;99.80;;;;;;4999283;28;19934;-71
2022/06/03 03:04:59;;;;;;;;;;;11.80;99.90;;;;;;4967567;28;19976;-71
2022/06/03 03:07:42;;;;;;;;;;;11.70;99.90;;;;;;5007555;28;19976;-70
2022/06/03 03:10:24;;;;;;;;;;;11.60;99.90;;;;;;5009623;28;20013;-71
2022/06/03 03:13:08;;;;;;;;;;;11.60;99.90;;;;;;5002354;28;19973;-70
2022/06/03 03:16:05;;;;;;;;;;;11.50;99.90;;;;;;5004092;28;19929;-70
2022/06/03 03:18:49;;;;;;;;;;;11.40;99.90;;;;;;5008981;28;19925;-70
2022/06/03 03:21:20;;;;;;;;;;;11.40;99.90;;;;;;4976973;28;19961;-72
2022/06/03 03:24:01;;;;;;;;;;;11.30;99.90;;;;;;4997023;28;19932;-71
2022/06/03 03:26:33;;;;;;;;;;;11.30;99.90;;;;;;5004209;28;20471;-72
2022/06/03 03:29:07;;;;;;;;;;;11.30;99.90;;;;;;5003724;28;20020;-71
2022/06/03 03:32:04;;;;;;;;;;;11.30;99.90;;;;;;5009738;28;20036;-72
2022/06/03 03:34:43;;;;;;;;;;;11.20;99.90;;;;;;4945136;29;20008;-73
2022/06/03 03:37:36;;;;;;;;;;;11.20;99.90;;;;;;4999936;28;19965;-73
2022/06/03 03:40:20;;;;;;;;;;;11.10;99.90;;;;;;5010045;28;20028;-72
2022/06/03 03:43:05;;;;;;;;;;;11.10;99.90;;;;;;5001059;28;19937;-72
2022/06/03 03:45:47;;;;;;;;;;;11.10;99.90;;;;;;5009211;28;19926;-73
2022/06/03 03:48:29;;;;;;;;;;;11.10;99.90;;;;;;5001454;28;19953;-72
2022/06/03 03:51:14;;;;;;;;;;;11.10;99.90;;;;;;5006934;28;19926;-72
2022/06/03 03:54:09;;;;;;;;;;;11.10;99.90;;;;;;5000376;28;19991;-73
2022/06/03 03:56:56;;;;;;;;;;;11.00;99.90;;;;;;5005141;28;19936;-72
2022/06/03 03:59:36;;;;;;;;;;;11.00;99.90;;;;;;5002733;28;19965;-72
2022/06/03 04:02:21;;;;;;;;;;;11.00;99.90;;;;;;5008769;28;20511;-72
2022/06/03 04:05:18;;;;;;;;;;;11.00;99.90;;;;;;4987541;28;20154;-72
2022/06/03 04:07:55;;;;;;;;;;;11.10;99.90;;;;;;5002792;28;20024;-72
2022/06/03 04:10:40;;;;;;;;;;;11.10;99.90;;;;;;5004517;28;19957;-72
2022/06/03 04:13:40;;;;;;;;;;;11.10;99.90;;;;;;5007030;28;20402;-73
2022/06/03 04:16:18;;;;;;;;;;;11.10;99.90;;;;;;5001658;28;19926;-73
2022/06/03 04:18:59;;;;;;;;;;;11.10;99.90;;;;;;5004677;28;19926;-73
2022/06/03 04:21:45;;;;;;;;;;;11.10;99.90;;;;;;5012304;28;20012;-72
2022/06/03 04:24:29;;;;;;;;;;;11.10;99.90;;;;;;5011358;28;19925;-71
2022/06/03 04:27:11;;;;;;;;;;;11.20;99.90;;;;;;5009430;28;19933;-71
2022/06/03 04:29:58;;;;;;;;;;;11.20;99.90;;;;;;4986853;28;20024;-71
2022/06/03 04:32:49;;;;;;;;;;;11.30;99.90;;;;;;5002217;28;20020;-70
2022/06/03 04:35:37;;;;;;;;;;;11.30;99.90;;;;;;5010639;28;19925;-71
2022/06/03 04:38:31;;;;;;;;;;;11.40;99.90;;;;;;5004907;28;19926;-71
2022/06/03 04:41:18;;;;;;;;;;;11.40;99.90;;;;;;5008293;28;19976;-71
2022/06/03 04:44:13;;;;;;;;;;;11.50;99.90;;;;;;5006118;28;19933;-71
2022/06/03 04:47:01;;;;;;;;;;;11.60;99.90;;;;;;5009556;28;19956;-71
2022/06/03 04:49:46;;;;;;;;;;;11.60;99.90;;;;;;5008360;28;20020;-71
2022/06/03 04:52:31;;;;;;;;;;;11.70;99.90;;;;;;5003268;28;20363;-69
2022/06/03 04:55:17;;;;;;;;;;;11.70;99.90;;;;;;5011579;28;20024;-70
2022/06/03 04:58:01;;;;;;;;;;;11.80;99.90;;;;;;5011451;28;19981;-71
2022/06/03 05:00:35;;;;;;;;;;;11.80;99.90;;;;;;5003794;28;19997;-71
2022/06/03 05:03:20;;;;;;;;;;;11.90;99.90;;;;;;5008007;28;20963;-71
2022/06/03 05:06:08;;;;;;;;;;;12.00;99.90;;;;;;5000157;28;19926;-71
2022/06/03 05:09:01;;;;;;;;;;;12.20;99.90;;;;;;5010503;28;20348;-71
2022/06/03 05:11:40;;;;;;;;;;;12.30;99.90;;;;;;5008679;28;20392;-70
2022/06/03 05:14:39;;;;;;;;;;;12.40;99.90;;;;;;5005633;28;19976;-72
2022/06/03 05:17:25;;;;;;;;;;;12.50;99.90;;;;;;4994675;28;20016;-71
2022/06/03 05:20:09;;;;;;;;;;;12.60;99.90;;;;;;5002259;28;20368;-71
2022/06/03 05:22:41;;;;;;;;;;;12.60;99.90;;;;;;5003406;28;19930;-71
2022/06/03 05:25:23;;;;;;;;;;;12.70;99.90;;;;;;5009825;28;20009;-70
2022/06/03 05:28:13;;;;;;;;;;;12.80;99.90;;;;;;5005645;28;20392;-72
2022/06/03 05:30:51;;;;;;;;;;;12.70;99.40;;;;;;5009236;28;20024;-70
2022/06/03 05:33:41;;;;;;;;;;;12.70;99.90;;;;;;5009461;28;19926;-71
2022/06/03 05:36:32;;;;;;;;;;;12.70;99.90;;;;;;5007552;28;20008;-71
2022/06/03 05:39:17;;;;;;;;;;;12.80;99.90;;;;;;4995908;28;20020;-71
2022/06/03 05:44:43;;;;;;;;;;;12.90;99.90;;;;;;4998589;28;20415;-71
2022/06/03 05:47:12;;;;;;;;;;;13.00;99.90;;;;;;4999567;28;20348;-71
2022/06/03 05:49:42;;;;;;;;;;;13.10;99.70;;;;;;5006903;28;20424;-71
2022/06/03 05:52:16;;;;;;;;;;;13.20;99.20;;;;;;5004286;28;19926;-70
2022/06/03 05:54:47;;;;;;;;;;;13.20;99.20;;;;;;4998944;28;19975;-69
2022/06/03 05:57:24;;;;;;;;;;;13.30;98.70;;;;;;5004930;28;20371;-69
2022/06/03 06:00:08;;;;;;;;;;;14.40;97.50;;;;;;5007826;28;20427;-69
2022/06/03 06:02:39;;;;;;;;;;;15.70;93.70;;;;;;5002755;28;20377;-69
2022/06/03 06:05:14;;;;;;;;;;;16.60;90.50;;;;;;5005853;28;19933;-68
2022/06/03 06:07:46;;;;;;;;;;;16.30;88.00;;;;;;5004732;28;19925;-68
2022/06/03 06:10:19;;;;;;;;;;;17.50;82.50;;;;;;4995887;28;20689;-67
2022/06/03 06:12:56;;;;;;;;;;;18.10;76.20;;;;;;5004438;28;20401;-71
2022/06/03 06:15:38;;;;;;;;;;;18.10;72.70;;;;;;5008476;28;19964;-68
2022/06/03 06:18:11;;;;;;;;;;;18.30;73.70;;;;;;5001010;28;20372;-69
2022/06/03 06:20:44;;;;;;;;;;;18.30;69.40;;;;;;5004543;28;19972;-69
2022/06/03 06:23:20;;;;;;;;;;;18.70;68.00;;;;;;5001186;28;19988;-70
2022/06/03 06:25:57;;;;;;;;;;;18.60;62.10;;;;;;5006262;28;19932;-70
2022/06/03 06:28:35;;;;;;;;;;;17.90;65.80;;;;;;4997721;28;20041;-69
2022/06/03 06:31:27;;;;;;;;;;;18.20;64.60;;;;;;5002044;28;20293;-69
2022/06/03 06:34:03;;;;;;;;;;;17.50;64.00;;;;;;5005545;28;19968;-68
2022/06/03 06:36:45;;;;;;;;;;;17.60;67.70;;;;;;5000308;28;19932;-69
2022/06/03 06:39:20;;;;;;;;;;;18.40;64.50;;;;;;4994784;28;20012;-71
2022/06/03 06:41:51;;;;;;;;;;;19.00;62.90;;;;;;4996515;28;19932;-69
2022/06/03 06:44:32;;;;;;;;;;;19.90;59.30;;;;;;5003699;28;19925;-72
2022/06/03 06:47:05;;;;;;;;;;;20.80;54.00;;;;;;5006602;28;19936;-69
2022/06/03 06:49:34;;;;;;;;;;;19.80;52.50;;;;;;5007061;28;19976;-69
2022/06/03 06:52:16;;;;;;;;;;;19.60;54.20;;;;;;5001360;28;19978;-69
2022/06/03 06:54:52;;;;;;;;;;;20.60;52.20;;;;;;5005346;28;19925;-69
2022/06/03 06:57:20;;;;;;;;;;;21.60;51.30;;;;;;5006731;28;19952;-70
2022/06/03 06:59:50;;;;;;;;;;;20.90;47.10;;;;;;4999708;28;19930;-70
2022/06/03 07:02:20;;;;;;;;;;;20.90;48.30;;;;;;5010353;28;20602;-71
2022/06/03 07:04:50;;;;;;;;;;;20.60;49.70;;;;;;5008732;28;19933;-72
2022/06/03 07:07:19;;;;;;;;;;;20.60;47.30;;;;;;5009434;28;20416;-71
2022/06/03 07:09:52;;;;;;;;;;;20.60;47.30;;;;;;5007127;28;20240;-70
2022/06/03 07:12:21;;;;;;;;;;;21.80;43.50;;;;;;5009075;28;19933;-70
2022/06/03 07:15:00;;;;;;;;;;;21.10;45.40;;;;;;5009181;28;21877;-71
2022/06/03 07:20:23;;;;;;;;;;;21.20;43.30;;;;;;5001159;28;19932;-70
2022/06/03 07:22:55;;;;;;;;;;;21.20;43.80;;;;;;5003515;28;19961;-71
2022/06/03 07:25:25;;;;;;;;;;;21.30;43.40;;;;;;5010898;28;19934;-72
2022/06/03 07:27:56;;;;;;;;;;;22.20;41.50;;;;;;5007227;28;19933;-71
2022/06/03 07:30:27;;;;;;;;;;;21.30;41.00;;;;;;5010580;28;20407;-71
2022/06/03 07:32:58;;;;;;;;;;;20.70;43.50;;;;;;5003800;28;20043;-71
2022/06/03 07:35:29;;;;;;;;;;;20.20;45.50;;;;;;5010365;28;20285;-71
2022/06/03 07:38:00;;;;;;;;;;;20.20;45.10;;;;;;5008577;28;19979;-71
2022/06/03 07:40:28;;;;;;;;;;;20.60;44.80;;;;;;5010182;28;19925;-71
2022/06/03 07:42:58;;;;;;;;;;;20.50;45.00;;;;;;5007774;28;20012;-68
2022/06/03 07:45:37;;;;;;;;;;;20.50;45.60;;;;;;4999621;28;19926;-71
2022/06/03 07:48:05;;;;;;;;;;;20.40;45.10;;;;;;5008563;28;19961;-71
2022/06/03 07:50:34;;;;;;;;;;;20.60;44.50;;;;;;5011563;28;20364;-70
2022/06/03 07:53:03;;;;;;;;;;;21.60;42.40;;;;;;5009849;28;19925;-71
2022/06/03 07:55:31;;;;;;;;;;;22.70;40.40;;;;;;5008023;28;20029;-70
2022/06/03 07:58:02;;;;;;;;;;;23.10;38.70;;;;;;5010263;28;19926;-70
2022/06/03 08:00:34;;;;;;;;;;;22.40;40.80;;;;;;5008980;28;19936;-70
2022/06/03 08:03:01;;;;;;;;;;;22.10;40.30;;;;;;5005104;28;19929;-70
2022/06/03 08:05:28;;;;;;;;;;;23.00;38.50;;;;;;5010615;28;19926;-70
2022/06/03 08:11:00;;;;;;;;;;;23.20;35.30;;;;;;5008933;28;20023;-70
2022/06/03 08:13:28;;;;;;;;;;;22.90;36.30;;;;;;4999514;28;20003;-71
2022/06/03 08:15:59;;;;;;;;;;;23.30;35.70;;;;;;5008870;28;19925;-71
2022/06/03 08:18:28;;;;;;;;;;;23.70;34.30;;;;;;5005221;28;20012;-70
2022/06/03 08:20:58;;;;;;;;;;;23.90;36.10;;;;;;5004140;28;19991;-71
2022/06/03 08:23:25;;;;;;;;;;;24.00;34.90;;;;;;5006266;28;19932;-70
2022/06/03 08:25:53;;;;;;;;;;;23.50;33.30;;;;;;5011525;28;20372;-71
2022/06/03 08:28:25;;;;;;;;;;;25.60;30.00;;;;;;5003570;28;19933;-71
2022/06/03 08:30:53;;;;;;;;;;;24.80;29.90;;;;;;5009397;28;19926;-73
2022/06/03 08:33:26;;;;;;;;;;;24.20;30.20;;;;;;5008131;28;20463;-72
2022/06/03 08:35:53;;;;;;;;;;;24.80;30.00;;;;;;5006980;28;20013;-72
2022/06/03 08:38:21;;;;;;;;;;;25.50;29.00;;;;;;5006652;28;20436;-73
2022/06/03 08:40:54;;;;;;;;;;;24.90;29.00;;;;;;5007932;28;19926;-72
2022/06/03 08:43:24;;;;;;;;;;;25.10;27.70;;;;;;5009230;28;19976;-73
2022/06/03 08:45:55;;;;;;;;;;;25.00;28.30;;;;;;5009796;28;19936;-73
2022/06/03 08:48:26;;;;;;;;;;;25.70;25.40;;;;;;5002624;28;19944;-73
2022/06/03 08:50:55;;;;;;;;;;;26.20;26.10;;;;;;5010259;28;20442;-73
2022/06/03 08:53:24;;;;;;;;;;;26.30;25.70;;;;;;5009485;28;19925;-71
2022/06/03 08:55:52;;;;;;;;;;;26.90;23.20;;;;;;5006948;28;20367;-72
2022/06/03 08:58:23;;;;;;;;;;;25.30;24.40;;;;;;5011177;28;19969;-71
2022/06/03 09:00:54;;;;;;;;;;;25.20;25.50;;;;;;5008194;28;19925;-71
2022/06/03 09:03:24;;;;;;;;;;;24.50;24.40;;;;;;5009400;28;19925;-70
2022/06/03 09:05:55;;;;;;;;;;;24.40;26.30;;;;;;5007445;28;19929;-70
2022/06/03 09:08:25;;;;;;;;;;;24.20;26.60;;;;;;5009751;28;20404;-71
2022/06/03 09:10:56;;;;;;;;;;;24.50;26.50;;;;;;5010638;28;20012;-70
2022/06/03 09:13:25;;;;;;;;;;;24.10;26.70;;;;;;5006456;28;20811;-68
2022/06/03 09:15:53;;;;;;;;;;;24.40;26.20;;;;;;5008125;28;19925;-71
2022/06/03 09:18:22;;;;;;;;;;;24.30;25.20;;;;;;5007884;28;19926;-69
2022/06/03 09:20:52;;;;;;;;;;;25.40;25.10;;;;;;5004482;28;19961;-71
2022/06/03 09:23:21;;;;;;;;;;;25.30;24.60;;;;;;5005978;28;20001;-71
2022/06/03 09:25:49;;;;;;;;;;;25.30;23.80;;;;;;5012271;28;20016;-71
2022/06/03 09:28:22;;;;;;;;;;;26.50;21.60;;;;;;5008670;28;19931;-72
2022/06/03 09:30:50;;;;;;;;;;;27.30;18.50;;;;;;5011559;28;20006;-71
2022/06/03 09:33:19;;;;;;;;;;;25.80;21.90;;;;;;5007953;28;20004;-71
2022/06/03 09:35:47;;;;;;;;;;;25.20;20.60;;;;;;5010293;28;19996;-70
2022/06/03 09:38:15;;;;;;;;;;;24.00;22.20;;;;;;5008719;28;19984;-71
2022/06/03 09:40:44;;;;;;;;;;;24.40;22.40;;;;;;5010141;28;19925;-70
2022/06/03 09:43:14;;;;;;;;;;;25.30;22.40;;;;;;5009083;28;19964;-72
2022/06/03 09:45:45;;;;;;;;;;;27.70;17.70;;;;;;5004911;28;20428;-73
2022/06/03 09:48:12;;;;;;;;;;;28.20;15.60;;;;;;5009161;28;19929;-71
2022/06/03 09:50:39;;;;;;;;;;;27.60;14.20;;;;;;5006950;28;20274;-69
2022/06/03 09:53:07;;;;;;;;;;;27.30;15.80;;;;;;5006474;28;20660;-71
2022/06/03 09:55:36;;;;;;;;;;;28.00;14.60;;;;;;4993232;28;19925;-71
2022/06/03 09:58:05;;;;;;;;;;;27.70;14.70;;;;;;5002022;28;19933;-70
2022/06/03 10:00:36;;;;;;;;;;;26.90;16.00;;;;;;5020963;28;19969;-70
2022/06/03 10:03:04;;;;;;;;;;;27.50;13.90;;;;;;5002489;28;20421;-70
2022/06/03 10:05:31;;;;;;;;;;;26.90;14.40;;;;;;5004046;28;19984;-69
2022/06/03 10:07:59;;;;;;;;;;;27.80;12.50;;;;;;5001684;28;19976;-71
2022/06/03 10:13:12;;;;;;;;;;;25.00;14.70;;;;;;4998537;28;20073;-70
2022/06/03 10:15:41;;;;;;;;;;;24.10;16.50;;;;;;4995562;28;19952;-69
2022/06/03 10:18:12;;;;;;;;;;;24.50;14.90;;;;;;5001053;28;19933;-69
2022/06/03 10:20:39;;;;;;;;;;;24.80;14.70;;;;;;5005302;28;19931;-71
2022/06/03 10:23:08;;;;;;;;;;;24.90;14.40;;;;;;5003124;28;19925;-70
2022/06/03 10:25:36;;;;;;;;;;;25.00;14.70;;;;;;5010273;28;19933;-70
2022/06/03 10:28:03;;;;;;;;;;;24.30;16.70;;;;;;4998405;28;20384;-69
2022/06/03 10:30:32;;;;;;;;;;;24.30;15.00;;;;;;5004724;28;20352;-72
2022/06/03 10:32:59;;;;;;;;;;;24.60;15.10;;;;;;5005882;28;19929;-69
2022/06/03 10:35:28;;;;;;;;;;;24.40;13.80;;;;;;5004292;28;19988;-69
2022/06/03 10:37:56;;;;;;;;;;;24.80;14.00;;;;;;4996674;28;19929;-70
2022/06/03 10:40:24;;;;;;;;;;;25.40;13.60;;;;;;5009294;28;19929;-70
2022/06/03 10:42:54;;;;;;;;;;;25.60;12.70;;;;;;5005473;28;19925;-69
2022/06/03 10:45:26;;;;;;;;;;;25.70;13.00;;;;;;5008131;28;19929;-70
2022/06/03 10:47:54;;;;;;;;;;;25.40;11.60;;;;;;5004181;28;19977;-68
2022/06/03 10:50:28;;;;;;;;;;;25.00;13.90;;;;;;5003626;28;20126;-70
2022/06/03 11:01:27;;;;;;;;;;;23.70;12.30;;;;;;5005293;28;19933;-71
2022/06/03 11:03:56;;;;;;;;;;;24.20;12.50;;;;;;5003757;28;19925;-69
2022/06/03 11:06:24;;;;;;;;;;;24.00;14.20;;;;;;5005683;28;19926;-73
2022/06/03 11:08:52;;;;;;;;;;;23.90;13.20;;;;;;4999099;28;19925;-69
2022/06/03 11:11:36;;;;;;;;;;;24.10;13.90;;;;;;5000320;28;19995;-74
2022/06/03 11:14:18;;;;;;;;;;;24.70;13.50;;;;;;4998278;28;20020;-71
2022/06/03 11:16:49;;;;;;;;;;;25.00;13.30;;;;;;4996198;28;19926;-71
2022/06/03 11:19:21;;;;;;;;;;;25.10;11.70;;;;;;5003473;28;20013;-72
2022/06/03 11:21:48;;;;;;;;;;;25.60;11.30;;;;;;5005373;28;19933;-73
2022/06/03 11:24:15;;;;;;;;;;;25.60;11.20;;;;;;4994344;28;19925;-72
2022/06/03 11:26:44;;;;;;;;;;;24.90;12.50;;;;;;5008462;28;19948;-72
2022/06/03 11:29:15;;;;;;;;;;;25.00;12.70;;;;;;5001707;28;19932;-72
2022/06/03 11:31:44;;;;;;;;;;;25.50;11.80;;;;;;5002237;28;20020;-72
2022/06/03 11:34:15;;;;;;;;;;;25.60;11.60;;;;;;5009101;28;20396;-72
2022/06/03 11:36:46;;;;;;;;;;;25.80;10.90;;;;;;5005898;28;19929;-72
2022/06/03 11:39:19;;;;;;;;;;;25.20;11.80;;;;;;5004634;28;19980;-71
2022/06/03 11:41:48;;;;;;;;;;;24.80;11.80;;;;;;5006094;28;20037;-71
2022/06/03 11:44:17;;;;;;;;;;;24.80;9.50;;;;;;5005060;28;20263;-69
2022/06/03 11:46:48;;;;;;;;;;;25.10;9.20;;;;;;5011211;28;20682;-71
2022/06/03 11:49:16;;;;;;;;;;;25.40;9.70;;;;;;5010174;28;20020;-69
2022/06/03 11:51:45;;;;;;;;;;;25.70;8.30;;;;;;5010810;28;19926;-72
2022/06/03 11:54:13;;;;;;;;;;;25.40;10.80;;;;;;5008998;28;19929;-72
2022/06/03 11:56:41;;;;;;;;;;;25.30;11.60;;;;;;5002852;28;20403;-70
2022/06/03 11:59:11;;;;;;;;;;;25.40;10.60;;;;;;5008619;28;19933;-71
2022/06/03 12:01:43;;;;;;;;;;;25.50;11.50;;;;;;5003881;28;19930;-71
2022/06/03 12:04:15;;;;;;;;;;;25.00;11.00;;;;;;5004700;28;19937;-72
2022/06/03 12:06:44;;;;;;;;;;;24.90;11.00;;;;;;5007474;28;19972;-72
2022/06/03 12:09:18;;;;;;;;;;;25.50;11.40;;;;;;5007073;28;19934;-72
2022/06/03 12:14:35;;;;;;;;;;;24.70;12.10;;;;;;5003398;28;19933;-72
2022/06/03 12:17:22;;;;;;;;;;;24.80;11.70;;;;;;5006148;28;20016;-72
2022/06/03 12:19:50;;;;;;;;;;;24.90;13.20;;;;;;5008262;28;19940;-69
2022/06/03 12:22:35;;;;;;;;;;;24.70;12.40;;;;;;5042994;22;19975;-72
2022/06/03 12:25:04;;;;;;;;;;;24.90;11.40;;;;;;5075753;22;19960;-70
2022/06/03 12:27:32;;;;;;;;;;;25.10;11.40;;;;;;5078202;28;19932;-72
2022/06/03 12:30:18;;;;;;;;;;;24.80;11.90;;;;;;5082708;28;19932;-72
2022/06/03 12:32:49;;;;;;;;;;;25.00;12.40;;;;;;5073498;28;21661;-72
2022/06/03 12:35:30;;;;;;;;;;;25.40;10.30;;;;;;5079389;28;19950;-70
2022/06/03 12:38:12;;;;;;;;;;;25.80;8.90;;;;;;5077617;28;20009;-70
2022/06/03 12:40:40;;;;;;;;;;;25.60;8.30;;;;;;5088277;28;19974;-72
2022/06/03 12:43:22;;;;;;;;;;;25.60;9.50;;;;;;5079233;28;20018;-70
2022/06/03 12:45:58;;;;;;;;;;;25.80;9.60;;;;;;5082546;28;19924;-71
2022/06/03 12:48:36;;;;;;;;;;;25.10;10.50;;;;;;5080910;28;20387;-70
2022/06/03 12:51:13;;;;;;;;;;;25.10;10.60;;;;;;5076226;28;19932;-71
2022/06/03 12:53:42;;;;;;;;;;;24.60;11.10;;;;;;5072881;28;21026;-71
2022/06/03 12:56:24;;;;;;;;;;;24.60;11.40;;;;;;5081335;28;19932;-70
2022/06/03 12:58:56;;;;;;;;;;;24.60;10.60;;;;;;5073205;28;19952;-70
2022/06/03 13:01:50;;;;;;;;;;;25.00;11.80;;;;;;5081454;28;19964;-71
2022/06/03 13:04:27;;;;;;;;;;;25.20;10.60;;;;;;5052151;28;20319;-69
2022/06/03 13:07:10;;;;;;;;;;;25.20;10.00;;;;;;5079475;28;19972;-72
2022/06/03 13:09:50;;;;;;;;;;;25.00;10.30;;;;;;5076017;28;19924;-72
2022/06/03 13:12:17;;;;;;;;;;;25.30;9.20;;;;;;5078074;28;20215;-71
2022/06/03 13:14:45;;;;;;;;;;;25.30;9.70;;;;;;5080668;28;19924;-71
2022/06/03 13:17:27;;;;;;;;;;;25.10;9.70;;;;;;5077252;28;20288;-72
2022/06/03 13:19:58;;;;;;;;;;;25.00;9.60;;;;;;5072188;28;19932;-72
2022/06/03 13:22:30;;;;;;;;;;;25.10;9.30;;;;;;5079861;28;20447;-72
2022/06/03 13:25:15;;;;;;;;;;;24.80;9.90;;;;;;5081894;28;20007;-71
2022/06/03 13:28:02;;;;;;;;;;;24.80;9.50;;;;;;5078604;28;20006;-70
2022/06/03 13:30:36;;;;;;;;;;;25.60;9.90;;;;;;5077887;28;20042;-70
2022/06/03 13:33:12;;;;;;;;;;;24.90;10.80;;;;;;5079399;28;19932;-71
2022/06/03 13:35:57;;;;;;;;;;;24.70;9.80;;;;;;5082864;28;20015;-70
2022/06/03 13:38:27;;;;;;;;;;;24.60;9.30;;;;;;5083238;28;19999;-72
2022/06/03 13:44:03;;;;;;;;;;;24.80;8.80;;;;;;5076779;28;19945;-71
2022/06/03 13:46:31;;;;;;;;;;;25.50;8.40;;;;;;5079338;28;19974;-71
2022/06/03 13:49:01;;;;;;;;;;;25.70;8.30;;;;;;5088464;28;19952;-71
2022/06/03 13:51:30;;;;;;;;;;;25.40;9.60;;;;;;5085277;28;20041;-70
2022/06/03 13:53:59;;;;;;;;;;;25.80;9.20;;;;;;5083894;28;19986;-72
2022/06/03 13:56:28;;;;;;;;;;;26.10;8.50;;;;;;5070861;28;19932;-70
2022/06/03 13:58:55;;;;;;;;;;;25.80;7.90;;;;;;5076866;28;19971;-71
2022/06/03 14:01:25;;;;;;;;;;;25.60;8.30;;;;;;5069543;28;19936;-71
2022/06/03 14:03:56;;;;;;;;;;;26.10;9.30;;;;;;5070946;28;20006;-72
2022/06/03 14:06:29;;;;;;;;;;;25.80;8.60;;;;;;5079390;28;19973;-71
2022/06/03 14:08:57;;;;;;;;;;;26.20;7.80;;;;;;5079430;28;20341;-70
2022/06/03 14:11:29;;;;;;;;;;;25.60;7.00;;;;;;5076750;28;19964;-71
2022/06/03 14:13:58;;;;;;;;;;;26.20;7.20;;;;;;5077442;28;19991;-71
2022/06/03 14:16:27;;;;;;;;;;;26.40;5.90;;;;;;5077429;28;20724;-71
2022/06/03 14:18:59;;;;;;;;;;;26.00;6.70;;;;;;5071831;28;19946;-72
2022/06/03 14:21:33;;;;;;;;;;;26.20;6.60;;;;;;5083484;28;19994;-71
2022/06/03 14:24:01;;;;;;;;;;;26.90;6.00;;;;;;5074075;28;20301;-74
2022/06/03 14:26:32;;;;;;;;;;;26.30;6.50;;;;;;5078664;28;20395;-73
2022/06/03 14:29:00;;;;;;;;;;;26.00;6.80;;;;;;5079339;28;20106;-71
2022/06/03 14:31:30;;;;;;;;;;;25.70;8.30;;;;;;5079209;28;19929;-72
2022/06/03 14:34:03;;;;;;;;;;;25.70;7.90;;;;;;5074056;28;19932;-74
2022/06/03 14:36:30;;;;;;;;;;;26.20;8.10;;;;;;5070141;28;19939;-72
2022/06/03 14:39:01;;;;;;;;;;;26.30;7.60;;;;;;5068751;28;20167;-73
2022/06/03 14:41:30;;;;;;;;;;;26.90;6.50;;;;;;5083042;28;20429;-72
2022/06/03 14:43:57;;;;;;;;;;;27.50;6.80;;;;;;5076872;28;20039;-72
2022/06/03 14:46:28;;;;;;;;;;;27.50;6.30;;;;;;5074813;28;20094;-72
2022/06/03 14:48:56;;;;;;;;;;;27.90;6.50;;;;;;5075856;28;19994;-72
2022/06/03 14:51:32;;;;;;;;;;;26.30;6.80;;;;;;5074197;28;19924;-72
2022/06/03 14:54:01;;;;;;;;;;;26.00;7.00;;;;;;5069858;28;19932;-74
2022/06/03 14:56:30;;;;;;;;;;;25.30;6.80;;;;;;5081354;28;20454;-73
2022/06/03 14:58:59;;;;;;;;;;;25.80;7.30;;;;;;5082964;28;19928;-73
2022/06/03 15:01:40;;;;;;;;;;;26.10;7.70;;;;;;5074943;28;20310;-71
2022/06/03 15:04:09;;;;;;;;;;;26.20;8.20;;;;;;5076677;28;19978;-72
2022/06/03 15:06:39;;;;;;;;;;;25.70;8.30;;;;;;5071007;28;19940;-72
2022/06/03 15:09:08;;;;;;;;;;;25.50;7.40;;;;;;5076163;28;20465;-72
2022/06/03 15:11:37;;;;;;;;;;;25.10;8.70;;;;;;5079410;28;20002;-71
2022/06/03 15:14:08;;;;;;;;;;;24.70;9.40;;;;;;5079213;28;19946;-72
2022/06/03 15:16:34;;;;;;;;;;;24.70;9.00;;;;;;5073968;28;20044;-72
2022/06/03 15:19:01;;;;;;;;;;;25.00;9.00;;;;;;5074551;28;19924;-72
2022/06/03 15:21:30;;;;;;;;;;;25.10;9.80;;;;;;5071884;28;20032;-71
2022/06/03 15:23:59;;;;;;;;;;;24.70;9.80;;;;;;5079461;28;19958;-72
2022/06/03 15:26:29;;;;;;;;;;;24.60;9.50;;;;;;5073104;28;20018;-72
2022/06/03 15:28:57;;;;;;;;;;;24.80;10.10;;;;;;5073228;28;19963;-72
2022/06/03 15:31:25;;;;;;;;;;;24.80;11.60;;;;;;5075304;28;19924;-71
2022/06/03 15:33:54;;;;;;;;;;;24.40;11.10;;;;;;5079335;28;20015;-72